sensor_id;sensor_type;location;lat;lon;timestamp;P1;durP1;ratioP1;P2;durP2;ratioP2
24084;SDS011;12268;52.110;5.548;2022-07-04T00:01:01;8.43;;;4.85;;
24084;SDS011;12268;52.110;5.548;2022-07-04T00:03:27;11.77;;;5.55;;
24084;SDS011;12268;52.110;5.548;2022-07-04T00:05:53;7.75;;;4.90;;
24084;SDS011;12268;52.110;5.548;2022-07-04T00:08:18;7.35;;;5.28;;
24084;SDS011;12268;52.110;5.548;2022-07-04T00:10:44;9.25;;;4.75;;
24084;SDS011;12268;52.110;5.548;2022-07-04T00:13:10;7.03;;;4.90;;
24084;SDS011;12268;52.110;5.548;2022-07-04T00:15:35;8.77;;;4.82;;
24084;SDS011;12268;52.110;5.548;2022-07-04T00:18:01;9.57;;;5.07;;
24084;SDS011;12268;52.110;5.548;2022-07-04T00:20:27;6.38;;;4.80;;
24084;SDS011;12268;52.110;5.548;2022-07-04T00:22:52;12.07;;;5.70;;
24084;SDS011;12268;52.110;5.548;2022-07-04T00:25:18;13.07;;;4.80;;
24084;SDS011;12268;52.110;5.548;2022-07-04T00:27:43;8.98;;;5.03;;
24084;SDS011;12268;52.110;5.548;2022-07-04T00:30:09;7.75;;;4.88;;
24084;SDS011;12268;52.110;5.548;2022-07-04T00:32:35;8.05;;;5.15;;
24084;SDS011;12268;52.110;5.548;2022-07-04T00:35:01;8.20;;;4.80;;
24084;SDS011;12268;52.110;5.548;2022-07-04T00:37:26;10.70;;;5.20;;
24084;SDS011;12268;52.110;5.548;2022-07-04T00:39:52;13.65;;;5.78;;
24084;SDS011;12268;52.110;5.548;2022-07-04T00:42:17;9.25;;;5.30;;
24084;SDS011;12268;52.110;5.548;2022-07-04T00:44:43;9.50;;;4.97;;
24084;SDS011;12268;52.110;5.548;2022-07-04T00:47:08;12.20;;;5.47;;
24084;SDS011;12268;52.110;5.548;2022-07-04T00:49:34;9.02;;;5.57;;
24084;SDS011;12268;52.110;5.548;2022-07-04T00:52:00;8.35;;;5.85;;
24084;SDS011;12268;52.110;5.548;2022-07-04T00:54:27;9.23;;;6.00;;
24084;SDS011;12268;52.110;5.548;2022-07-04T00:56:54;9.23;;;5.75;;
24084;SDS011;12268;52.110;5.548;2022-07-04T00:59:20;8.60;;;5.65;;
24084;SDS011;12268;52.110;5.548;2022-07-04T01:01:47;9.63;;;6.50;;
24084;SDS011;12268;52.110;5.548;2022-07-04T01:04:13;10.75;;;5.60;;
24084;SDS011;12268;52.110;5.548;2022-07-04T01:06:39;9.27;;;6.10;;
24084;SDS011;12268;52.110;5.548;2022-07-04T01:09:04;10.77;;;5.93;;
24084;SDS011;12268;52.110;5.548;2022-07-04T01:11:30;13.90;;;6.90;;
24084;SDS011;12268;52.110;5.548;2022-07-04T01:13:56;14.48;;;7.03;;
24084;SDS011;12268;52.110;5.548;2022-07-04T01:16:24;10.70;;;7.40;;
24084;SDS011;12268;52.110;5.548;2022-07-04T01:18:50;11.57;;;6.78;;
24084;SDS011;12268;52.110;5.548;2022-07-04T01:21:17;11.55;;;7.28;;
24084;SDS011;12268;52.110;5.548;2022-07-04T01:23:43;14.20;;;7.63;;
24084;SDS011;12268;52.110;5.548;2022-07-04T01:26:09;10.98;;;7.47;;
24084;SDS011;12268;52.110;5.548;2022-07-04T01:28:35;11.75;;;7.22;;
24084;SDS011;12268;52.110;5.548;2022-07-04T01:31:00;12.05;;;7.10;;
24084;SDS011;12268;52.110;5.548;2022-07-04T01:33:26;13.02;;;6.25;;
24084;SDS011;12268;52.110;5.548;2022-07-04T01:35:51;13.30;;;7.05;;
24084;SDS011;12268;52.110;5.548;2022-07-04T01:38:17;11.20;;;6.93;;
24084;SDS011;12268;52.110;5.548;2022-07-04T01:40:43;13.73;;;6.95;;
24084;SDS011;12268;52.110;5.548;2022-07-04T01:43:08;9.10;;;6.30;;
24084;SDS011;12268;52.110;5.548;2022-07-04T01:45:34;9.98;;;6.60;;
24084;SDS011;12268;52.110;5.548;2022-07-04T01:48:06;12.48;;;7.22;;
24084;SDS011;12268;52.110;5.548;2022-07-04T01:50:32;14.20;;;6.85;;
24084;SDS011;12268;52.110;5.548;2022-07-04T01:52:58;9.88;;;5.78;;
24084;SDS011;12268;52.110;5.548;2022-07-04T01:55:24;9.25;;;6.78;;
24084;SDS011;12268;52.110;5.548;2022-07-04T01:57:50;13.90;;;7.00;;
24084;SDS011;12268;52.110;5.548;2022-07-04T02:00:15;12.98;;;6.55;;
24084;SDS011;12268;52.110;5.548;2022-07-04T02:02:59;9.40;;;5.93;;
24084;SDS011;12268;52.110;5.548;2022-07-04T02:05:25;14.07;;;6.20;;
24084;SDS011;12268;52.110;5.548;2022-07-04T02:07:51;10.50;;;6.43;;
24084;SDS011;12268;52.110;5.548;2022-07-04T02:10:16;10.15;;;6.18;;
24084;SDS011;12268;52.110;5.548;2022-07-04T02:12:42;11.52;;;6.38;;
24084;SDS011;12268;52.110;5.548;2022-07-04T02:15:33;11.80;;;6.20;;
24084;SDS011;12268;52.110;5.548;2022-07-04T02:18:00;9.60;;;6.20;;
24084;SDS011;12268;52.110;5.548;2022-07-04T02:20:30;11.52;;;6.00;;
24084;SDS011;12268;52.110;5.548;2022-07-04T02:22:56;9.88;;;6.03;;
24084;SDS011;12268;52.110;5.548;2022-07-04T02:25:22;15.52;;;6.45;;
24084;SDS011;12268;52.110;5.548;2022-07-04T02:27:48;10.50;;;6.40;;
24084;SDS011;12268;52.110;5.548;2022-07-04T02:30:13;10.05;;;5.97;;
24084;SDS011;12268;52.110;5.548;2022-07-04T02:32:39;8.75;;;5.97;;
24084;SDS011;12268;52.110;5.548;2022-07-04T02:35:05;13.23;;;6.05;;
24084;SDS011;12268;52.110;5.548;2022-07-04T02:37:32;10.20;;;6.03;;
24084;SDS011;12268;52.110;5.548;2022-07-04T02:39:57;10.85;;;6.07;;
24084;SDS011;12268;52.110;5.548;2022-07-04T02:42:23;9.98;;;6.22;;
24084;SDS011;12268;52.110;5.548;2022-07-04T02:44:49;12.70;;;6.68;;
24084;SDS011;12268;52.110;5.548;2022-07-04T02:47:15;13.25;;;6.63;;
24084;SDS011;12268;52.110;5.548;2022-07-04T02:49:40;9.80;;;6.15;;
24084;SDS011;12268;52.110;5.548;2022-07-04T02:52:06;11.65;;;6.68;;
24084;SDS011;12268;52.110;5.548;2022-07-04T02:54:32;9.63;;;6.43;;
24084;SDS011;12268;52.110;5.548;2022-07-04T02:56:57;11.25;;;6.78;;
24084;SDS011;12268;52.110;5.548;2022-07-04T02:59:23;11.07;;;7.68;;
24084;SDS011;12268;52.110;5.548;2022-07-04T03:01:48;13.95;;;7.53;;
24084;SDS011;12268;52.110;5.548;2022-07-04T03:04:14;13.13;;;8.00;;
24084;SDS011;12268;52.110;5.548;2022-07-04T03:06:40;12.07;;;7.32;;
24084;SDS011;12268;52.110;5.548;2022-07-04T03:09:07;12.55;;;7.50;;
24084;SDS011;12268;52.110;5.548;2022-07-04T03:11:33;12.55;;;7.80;;
24084;SDS011;12268;52.110;5.548;2022-07-04T03:13:59;13.75;;;8.15;;
24084;SDS011;12268;52.110;5.548;2022-07-04T03:16:24;15.65;;;9.32;;
24084;SDS011;12268;52.110;5.548;2022-07-04T03:18:50;15.02;;;8.75;;
24084;SDS011;12268;52.110;5.548;2022-07-04T03:21:15;14.13;;;8.77;;
24084;SDS011;12268;52.110;5.548;2022-07-04T03:23:41;17.80;;;9.48;;
24084;SDS011;12268;52.110;5.548;2022-07-04T03:26:07;12.82;;;9.20;;
24084;SDS011;12268;52.110;5.548;2022-07-04T03:28:33;14.43;;;8.70;;
24084;SDS011;12268;52.110;5.548;2022-07-04T03:30:58;17.52;;;8.82;;
24084;SDS011;12268;52.110;5.548;2022-07-04T03:33:24;16.02;;;9.43;;
24084;SDS011;12268;52.110;5.548;2022-07-04T03:35:49;15.35;;;9.15;;
24084;SDS011;12268;52.110;5.548;2022-07-04T03:38:15;14.23;;;9.48;;
24084;SDS011;12268;52.110;5.548;2022-07-04T03:40:40;19.23;;;9.93;;
24084;SDS011;12268;52.110;5.548;2022-07-04T03:43:06;16.42;;;10.27;;
24084;SDS011;12268;52.110;5.548;2022-07-04T03:45:32;18.58;;;10.20;;
24084;SDS011;12268;52.110;5.548;2022-07-04T03:47:58;17.10;;;10.23;;
24084;SDS011;12268;52.110;5.548;2022-07-04T03:50:23;19.42;;;10.15;;
24084;SDS011;12268;52.110;5.548;2022-07-04T03:52:49;14.85;;;10.48;;
24084;SDS011;12268;52.110;5.548;2022-07-04T03:55:15;14.50;;;9.40;;
24084;SDS011;12268;52.110;5.548;2022-07-04T03:57:41;18.20;;;9.63;;
24084;SDS011;12268;52.110;5.548;2022-07-04T04:00:07;21.75;;;10.75;;
24084;SDS011;12268;52.110;5.548;2022-07-04T04:02:34;17.63;;;10.82;;
24084;SDS011;12268;52.110;5.548;2022-07-04T04:05:00;19.88;;;10.57;;
24084;SDS011;12268;52.110;5.548;2022-07-04T04:07:45;17.95;;;10.35;;
24084;SDS011;12268;52.110;5.548;2022-07-04T04:10:10;19.45;;;11.05;;
24084;SDS011;12268;52.110;5.548;2022-07-04T04:12:36;20.90;;;11.70;;
24084;SDS011;12268;52.110;5.548;2022-07-04T04:15:01;21.17;;;11.18;;
24084;SDS011;12268;52.110;5.548;2022-07-04T04:17:27;22.13;;;11.23;;
24084;SDS011;12268;52.110;5.548;2022-07-04T04:19:53;24.38;;;11.90;;
24084;SDS011;12268;52.110;5.548;2022-07-04T04:22:18;24.85;;;11.77;;
24084;SDS011;12268;52.110;5.548;2022-07-04T04:24:44;25.13;;;11.55;;
24084;SDS011;12268;52.110;5.548;2022-07-04T04:27:09;24.92;;;13.20;;
24084;SDS011;12268;52.110;5.548;2022-07-04T04:29:35;20.05;;;11.50;;
24084;SDS011;12268;52.110;5.548;2022-07-04T04:32:00;21.95;;;11.90;;
24084;SDS011;12268;52.110;5.548;2022-07-04T04:34:26;23.02;;;12.32;;
24084;SDS011;12268;52.110;5.548;2022-07-04T04:36:51;23.90;;;12.95;;
24084;SDS011;12268;52.110;5.548;2022-07-04T04:39:17;23.45;;;13.25;;
24084;SDS011;12268;52.110;5.548;2022-07-04T04:41:42;22.08;;;13.45;;
24084;SDS011;12268;52.110;5.548;2022-07-04T04:44:08;22.83;;;13.82;;
24084;SDS011;12268;52.110;5.548;2022-07-04T04:46:34;23.60;;;13.00;;
24084;SDS011;12268;52.110;5.548;2022-07-04T04:48:59;21.70;;;12.95;;
24084;SDS011;12268;52.110;5.548;2022-07-04T04:51:25;23.05;;;13.40;;
24084;SDS011;12268;52.110;5.548;2022-07-04T04:53:50;24.77;;;14.10;;
24084;SDS011;12268;52.110;5.548;2022-07-04T04:56:16;21.25;;;12.95;;
24084;SDS011;12268;52.110;5.548;2022-07-04T04:58:41;23.23;;;13.00;;
24084;SDS011;12268;52.110;5.548;2022-07-04T05:01:07;21.13;;;13.38;;
24084;SDS011;12268;52.110;5.548;2022-07-04T05:03:32;21.70;;;13.52;;
24084;SDS011;12268;52.110;5.548;2022-07-04T05:05:58;25.38;;;13.45;;
24084;SDS011;12268;52.110;5.548;2022-07-04T05:08:23;21.70;;;12.60;;
24084;SDS011;12268;52.110;5.548;2022-07-04T05:10:50;25.50;;;14.15;;
24084;SDS011;12268;52.110;5.548;2022-07-04T05:13:17;25.23;;;14.10;;
24084;SDS011;12268;52.110;5.548;2022-07-04T05:15:43;22.83;;;13.60;;
24084;SDS011;12268;52.110;5.548;2022-07-04T05:18:09;24.55;;;13.05;;
24084;SDS011;12268;52.110;5.548;2022-07-04T05:20:35;21.67;;;12.32;;
24084;SDS011;12268;52.110;5.548;2022-07-04T05:23:00;21.88;;;12.50;;
24084;SDS011;12268;52.110;5.548;2022-07-04T05:25:26;14.88;;;11.05;;
24084;SDS011;12268;52.110;5.548;2022-07-04T05:27:51;18.77;;;11.93;;
24084;SDS011;12268;52.110;5.548;2022-07-04T05:30:17;23.42;;;11.95;;
24084;SDS011;12268;52.110;5.548;2022-07-04T05:32:42;22.13;;;11.68;;
24084;SDS011;12268;52.110;5.548;2022-07-04T05:35:08;18.55;;;11.52;;
24084;SDS011;12268;52.110;5.548;2022-07-04T05:37:34;18.13;;;10.45;;
24084;SDS011;12268;52.110;5.548;2022-07-04T05:40:00;19.33;;;9.82;;
24084;SDS011;12268;52.110;5.548;2022-07-04T05:42:26;18.55;;;10.57;;
24084;SDS011;12268;52.110;5.548;2022-07-04T05:44:52;23.40;;;9.82;;
24084;SDS011;12268;52.110;5.548;2022-07-04T05:47:18;14.57;;;9.68;;
24084;SDS011;12268;52.110;5.548;2022-07-04T05:49:43;16.27;;;9.45;;
24084;SDS011;12268;52.110;5.548;2022-07-04T05:52:09;18.00;;;9.63;;
24084;SDS011;12268;52.110;5.548;2022-07-04T05:54:35;15.43;;;8.73;;
24084;SDS011;12268;52.110;5.548;2022-07-04T05:57:00;14.73;;;7.95;;
24084;SDS011;12268;52.110;5.548;2022-07-04T05:59:26;15.90;;;8.00;;
24084;SDS011;12268;52.110;5.548;2022-07-04T06:01:51;12.88;;;6.68;;
24084;SDS011;12268;52.110;5.548;2022-07-04T06:04:17;14.35;;;7.60;;
24084;SDS011;12268;52.110;5.548;2022-07-04T06:06:43;11.52;;;6.72;;
24084;SDS011;12268;52.110;5.548;2022-07-04T06:09:08;11.23;;;6.32;;
24084;SDS011;12268;52.110;5.548;2022-07-04T06:11:34;12.90;;;6.47;;
24084;SDS011;12268;52.110;5.548;2022-07-04T06:14:00;10.95;;;6.75;;
24084;SDS011;12268;52.110;5.548;2022-07-04T06:16:25;10.95;;;6.15;;
24084;SDS011;12268;52.110;5.548;2022-07-04T06:18:51;10.57;;;6.30;;
24084;SDS011;12268;52.110;5.548;2022-07-04T06:21:16;9.55;;;5.80;;
24084;SDS011;12268;52.110;5.548;2022-07-04T06:23:42;13.57;;;6.10;;
24084;SDS011;12268;52.110;5.548;2022-07-04T06:26:08;12.30;;;6.18;;
24084;SDS011;12268;52.110;5.548;2022-07-04T06:28:34;15.65;;;6.00;;
24084;SDS011;12268;52.110;5.548;2022-07-04T06:30:59;10.40;;;5.63;;
24084;SDS011;12268;52.110;5.548;2022-07-04T06:33:25;13.82;;;6.00;;
24084;SDS011;12268;52.110;5.548;2022-07-04T06:35:51;15.40;;;6.10;;
24084;SDS011;12268;52.110;5.548;2022-07-04T06:38:23;14.68;;;6.05;;
24084;SDS011;12268;52.110;5.548;2022-07-04T06:40:57;13.07;;;6.57;;
24084;SDS011;12268;52.110;5.548;2022-07-04T06:43:23;18.00;;;6.90;;
24084;SDS011;12268;52.110;5.548;2022-07-04T06:45:50;11.85;;;7.07;;
24084;SDS011;12268;52.110;5.548;2022-07-04T06:48:16;13.80;;;6.38;;
24084;SDS011;12268;52.110;5.548;2022-07-04T06:50:42;14.68;;;7.07;;
24084;SDS011;12268;52.110;5.548;2022-07-04T06:53:08;12.27;;;6.57;;
24084;SDS011;12268;52.110;5.548;2022-07-04T06:55:34;13.35;;;6.88;;
24084;SDS011;12268;52.110;5.548;2022-07-04T06:58:01;14.88;;;7.22;;
24084;SDS011;12268;52.110;5.548;2022-07-04T07:00:27;13.40;;;7.43;;
24084;SDS011;12268;52.110;5.548;2022-07-04T07:02:55;15.18;;;8.40;;
24084;SDS011;12268;52.110;5.548;2022-07-04T07:05:23;20.83;;;8.30;;
24084;SDS011;12268;52.110;5.548;2022-07-04T07:07:49;15.25;;;8.10;;
24084;SDS011;12268;52.110;5.548;2022-07-04T07:10:15;18.17;;;7.53;;
24084;SDS011;12268;52.110;5.548;2022-07-04T07:12:40;15.10;;;7.50;;
24084;SDS011;12268;52.110;5.548;2022-07-04T07:15:06;16.88;;;7.75;;
24084;SDS011;12268;52.110;5.548;2022-07-04T07:17:32;12.82;;;7.80;;
24084;SDS011;12268;52.110;5.548;2022-07-04T07:19:57;15.32;;;7.60;;
24084;SDS011;12268;52.110;5.548;2022-07-04T07:22:23;17.30;;;8.38;;
24084;SDS011;12268;52.110;5.548;2022-07-04T07:24:48;19.17;;;7.95;;
24084;SDS011;12268;52.110;5.548;2022-07-04T07:27:14;11.90;;;7.10;;
24084;SDS011;12268;52.110;5.548;2022-07-04T07:29:40;12.68;;;7.47;;
24084;SDS011;12268;52.110;5.548;2022-07-04T07:32:06;11.13;;;7.20;;
24084;SDS011;12268;52.110;5.548;2022-07-04T07:34:32;13.93;;;7.63;;
24084;SDS011;12268;52.110;5.548;2022-07-04T07:36:57;24.58;;;9.30;;
24084;SDS011;12268;52.110;5.548;2022-07-04T07:39:23;17.00;;;7.72;;
24084;SDS011;12268;52.110;5.548;2022-07-04T07:41:49;14.02;;;7.95;;
24084;SDS011;12268;52.110;5.548;2022-07-04T07:44:14;18.58;;;8.65;;
24084;SDS011;12268;52.110;5.548;2022-07-04T07:46:40;19.48;;;8.98;;
24084;SDS011;12268;52.110;5.548;2022-07-04T07:49:06;16.73;;;9.07;;
24084;SDS011;12268;52.110;5.548;2022-07-04T07:51:32;15.20;;;8.18;;
24084;SDS011;12268;52.110;5.548;2022-07-04T07:53:57;10.20;;;7.07;;
24084;SDS011;12268;52.110;5.548;2022-07-04T07:56:23;13.93;;;7.65;;
24084;SDS011;12268;52.110;5.548;2022-07-04T07:58:49;13.73;;;8.25;;
24084;SDS011;12268;52.110;5.548;2022-07-04T08:01:15;12.52;;;6.70;;
24084;SDS011;12268;52.110;5.548;2022-07-04T08:03:41;10.70;;;6.15;;
24084;SDS011;12268;52.110;5.548;2022-07-04T08:06:25;12.27;;;6.57;;
24084;SDS011;12268;52.110;5.548;2022-07-04T08:08:51;10.88;;;6.10;;
24084;SDS011;12268;52.110;5.548;2022-07-04T08:11:16;12.82;;;6.53;;
24084;SDS011;12268;52.110;5.548;2022-07-04T08:13:42;10.85;;;6.05;;
24084;SDS011;12268;52.110;5.548;2022-07-04T08:16:08;8.35;;;5.93;;
24084;SDS011;12268;52.110;5.548;2022-07-04T08:18:34;17.00;;;5.85;;
24084;SDS011;12268;52.110;5.548;2022-07-04T08:21:00;10.38;;;6.00;;
24084;SDS011;12268;52.110;5.548;2022-07-04T08:23:26;12.57;;;6.07;;
24084;SDS011;12268;52.110;5.548;2022-07-04T08:25:53;9.63;;;5.78;;
24084;SDS011;12268;52.110;5.548;2022-07-04T08:28:19;10.55;;;5.78;;
24084;SDS011;12268;52.110;5.548;2022-07-04T08:30:44;11.43;;;5.55;;
24084;SDS011;12268;52.110;5.548;2022-07-04T08:33:10;7.75;;;5.20;;
24084;SDS011;12268;52.110;5.548;2022-07-04T08:35:35;7.15;;;5.30;;
24084;SDS011;12268;52.110;5.548;2022-07-04T08:38:01;10.73;;;5.53;;
24084;SDS011;12268;52.110;5.548;2022-07-04T08:40:27;7.80;;;4.07;;
24084;SDS011;12268;52.110;5.548;2022-07-04T08:42:54;7.78;;;4.25;;
24084;SDS011;12268;52.110;5.548;2022-07-04T08:45:25;8.40;;;4.25;;
24084;SDS011;12268;52.110;5.548;2022-07-04T08:47:55;8.32;;;3.92;;
24084;SDS011;12268;52.110;5.548;2022-07-04T08:50:26;6.50;;;4.05;;
24084;SDS011;12268;52.110;5.548;2022-07-04T08:53:05;10.50;;;3.13;;
24084;SDS011;12268;52.110;5.548;2022-07-04T08:55:33;7.50;;;2.60;;
24084;SDS011;12268;52.110;5.548;2022-07-04T08:58:19;5.45;;;2.80;;
24084;SDS011;12268;52.110;5.548;2022-07-04T09:00:54;6.80;;;3.20;;
24084;SDS011;12268;52.110;5.548;2022-07-04T09:03:44;5.68;;;2.78;;
24084;SDS011;12268;52.110;5.548;2022-07-04T09:06:10;4.82;;;2.80;;
24084;SDS011;12268;52.110;5.548;2022-07-04T09:08:37;8.80;;;3.10;;
24084;SDS011;12268;52.110;5.548;2022-07-04T09:11:04;6.85;;;2.88;;
24084;SDS011;12268;52.110;5.548;2022-07-04T09:13:31;4.47;;;2.40;;
24084;SDS011;12268;52.110;5.548;2022-07-04T09:15:57;4.10;;;2.20;;
24084;SDS011;12268;52.110;5.548;2022-07-04T09:20:48;9.10;;;2.67;;
24084;SDS011;12268;52.110;5.548;2022-07-04T09:23:19;4.82;;;2.63;;
24084;SDS011;12268;52.110;5.548;2022-07-04T09:25:47;7.43;;;2.50;;
24084;SDS011;12268;52.110;5.548;2022-07-04T09:28:25;7.00;;;3.00;;
24084;SDS011;12268;52.110;5.548;2022-07-04T09:30:52;7.20;;;2.95;;
24084;SDS011;12268;52.110;5.548;2022-07-04T09:33:17;7.65;;;2.70;;
24084;SDS011;12268;52.110;5.548;2022-07-04T09:35:44;3.80;;;2.10;;
24084;SDS011;12268;52.110;5.548;2022-07-04T09:38:10;3.83;;;1.92;;
24084;SDS011;12268;52.110;5.548;2022-07-04T09:40:38;7.07;;;2.50;;
24084;SDS011;12268;52.110;5.548;2022-07-04T09:43:24;6.05;;;2.30;;
24084;SDS011;12268;52.110;5.548;2022-07-04T09:45:57;6.80;;;2.28;;
24084;SDS011;12268;52.110;5.548;2022-07-04T09:48:24;7.20;;;3.10;;
24084;SDS011;12268;52.110;5.548;2022-07-04T09:50:50;9.25;;;3.08;;
24084;SDS011;12268;52.110;5.548;2022-07-04T09:53:16;11.63;;;3.80;;
24084;SDS011;12268;52.110;5.548;2022-07-04T09:55:42;6.88;;;2.80;;
24084;SDS011;12268;52.110;5.548;2022-07-04T09:58:11;7.65;;;3.10;;
24084;SDS011;12268;52.110;5.548;2022-07-04T10:00:38;6.78;;;2.70;;
24084;SDS011;12268;52.110;5.548;2022-07-04T10:03:25;6.22;;;2.13;;
24084;SDS011;12268;52.110;5.548;2022-07-04T10:06:10;5.35;;;2.38;;
24084;SDS011;12268;52.110;5.548;2022-07-04T10:08:38;5.20;;;2.08;;
24084;SDS011;12268;52.110;5.548;2022-07-04T10:11:04;6.07;;;2.22;;
24084;SDS011;12268;52.110;5.548;2022-07-04T10:13:30;3.88;;;1.88;;
24084;SDS011;12268;52.110;5.548;2022-07-04T10:15:57;6.05;;;2.28;;
24084;SDS011;12268;52.110;5.548;2022-07-04T10:18:23;4.47;;;2.10;;
24084;SDS011;12268;52.110;5.548;2022-07-04T10:20:50;13.00;;;3.25;;
24084;SDS011;12268;52.110;5.548;2022-07-04T10:23:18;4.82;;;1.80;;
24084;SDS011;12268;52.110;5.548;2022-07-04T10:25:48;9.00;;;2.50;;
24084;SDS011;12268;52.110;5.548;2022-07-04T10:28:15;3.20;;;1.92;;
24084;SDS011;12268;52.110;5.548;2022-07-04T10:30:42;4.43;;;2.35;;
24084;SDS011;12268;52.110;5.548;2022-07-04T10:33:10;6.82;;;2.38;;
24084;SDS011;12268;52.110;5.548;2022-07-04T10:35:56;5.78;;;2.40;;
24084;SDS011;12268;52.110;5.548;2022-07-04T10:38:23;4.68;;;2.30;;
24084;SDS011;12268;52.110;5.548;2022-07-04T10:40:51;4.57;;;2.15;;
24084;SDS011;12268;52.110;5.548;2022-07-04T10:48:48;2.90;;;1.67;;
24084;SDS011;12268;52.110;5.548;2022-07-04T10:51:14;4.18;;;1.88;;
24084;SDS011;12268;52.110;5.548;2022-07-04T10:56:56;4.25;;;2.22;;
24084;SDS011;12268;52.110;5.548;2022-07-04T10:59:30;3.38;;;1.88;;
24084;SDS011;12268;52.110;5.548;2022-07-04T11:12:17;5.38;;;2.25;;
24084;SDS011;12268;52.110;5.548;2022-07-04T11:14:44;4.82;;;2.00;;
24084;SDS011;12268;52.110;5.548;2022-07-04T11:17:15;7.65;;;2.20;;
24084;SDS011;12268;52.110;5.548;2022-07-04T11:20:02;3.85;;;2.03;;
24084;SDS011;12268;52.110;5.548;2022-07-04T11:22:29;3.17;;;2.08;;
24084;SDS011;12268;52.110;5.548;2022-07-04T11:24:55;3.33;;;2.40;;
24084;SDS011;12268;52.110;5.548;2022-07-04T11:27:22;3.15;;;2.22;;
24084;SDS011;12268;52.110;5.548;2022-07-04T11:29:51;5.13;;;2.25;;
24084;SDS011;12268;52.110;5.548;2022-07-04T11:32:18;5.47;;;2.70;;
24084;SDS011;12268;52.110;5.548;2022-07-04T11:34:44;5.30;;;3.05;;
24084;SDS011;12268;52.110;5.548;2022-07-04T11:37:11;4.32;;;2.10;;
24084;SDS011;12268;52.110;5.548;2022-07-04T11:39:37;2.53;;;1.60;;
24084;SDS011;12268;52.110;5.548;2022-07-04T11:42:02;3.28;;;1.70;;
24084;SDS011;12268;52.110;5.548;2022-07-04T11:44:46;3.17;;;1.90;;
24084;SDS011;12268;52.110;5.548;2022-07-04T11:50:07;3.08;;;1.83;;
24084;SDS011;12268;52.110;5.548;2022-07-04T11:55:06;3.85;;;1.63;;
24084;SDS011;12268;52.110;5.548;2022-07-04T11:57:34;2.73;;;1.47;;
24084;SDS011;12268;52.110;5.548;2022-07-04T12:00:03;3.53;;;1.60;;
24084;SDS011;12268;52.110;5.548;2022-07-04T12:02:40;4.82;;;1.67;;
24084;SDS011;12268;52.110;5.548;2022-07-04T12:05:07;2.95;;;1.70;;
24084;SDS011;12268;52.110;5.548;2022-07-04T12:07:36;2.38;;;1.50;;
24084;SDS011;12268;52.110;5.548;2022-07-04T12:10:15;2.47;;;1.73;;
24084;SDS011;12268;52.110;5.548;2022-07-04T12:12:57;3.88;;;1.60;;
24084;SDS011;12268;52.110;5.548;2022-07-04T12:15:25;67.13;;;15.65;;
24084;SDS011;12268;52.110;5.548;2022-07-04T12:18:00;53.92;;;7.32;;
24084;SDS011;12268;52.110;5.548;2022-07-04T12:20:26;48.70;;;9.63;;
24084;SDS011;12268;52.110;5.548;2022-07-04T12:22:54;14.07;;;3.22;;
24084;SDS011;12268;52.110;5.548;2022-07-04T12:28:33;6.03;;;2.60;;
24084;SDS011;12268;52.110;5.548;2022-07-04T12:30:47;11.00;;;2.90;;
24084;SDS011;12268;52.110;5.548;2022-07-04T12:33:18;8.23;;;2.05;;
24084;SDS011;12268;52.110;5.548;2022-07-04T12:35:49;5.05;;;2.00;;
24084;SDS011;12268;52.110;5.548;2022-07-04T12:38:21;10.63;;;2.47;;
24084;SDS011;12268;52.110;5.548;2022-07-04T12:46:08;3.25;;;1.58;;
24084;SDS011;12268;52.110;5.548;2022-07-04T12:48:51;2.22;;;1.60;;
24084;SDS011;12268;52.110;5.548;2022-07-04T12:51:19;3.72;;;1.40;;
24084;SDS011;12268;52.110;5.548;2022-07-04T12:53:49;2.88;;;1.50;;
24084;SDS011;12268;52.110;5.548;2022-07-04T12:59:11;2.72;;;1.55;;
24084;SDS011;12268;52.110;5.548;2022-07-04T13:01:41;3.80;;;1.88;;
24084;SDS011;12268;52.110;5.548;2022-07-04T13:04:08;2.50;;;1.60;;
24084;SDS011;12268;52.110;5.548;2022-07-04T13:06:35;5.60;;;2.10;;
24084;SDS011;12268;52.110;5.548;2022-07-04T13:09:02;4.43;;;1.83;;
24084;SDS011;12268;52.110;5.548;2022-07-04T13:11:28;4.93;;;1.70;;
24084;SDS011;12268;52.110;5.548;2022-07-04T13:14:12;5.07;;;1.52;;
24084;SDS011;12268;52.110;5.548;2022-07-04T13:16:38;4.68;;;1.77;;
24084;SDS011;12268;52.110;5.548;2022-07-04T13:19:03;5.50;;;2.40;;
24084;SDS011;12268;52.110;5.548;2022-07-04T13:21:29;1.92;;;1.23;;
24084;SDS011;12268;52.110;5.548;2022-07-04T13:23:55;1.85;;;1.40;;
24084;SDS011;12268;52.110;5.548;2022-07-04T13:26:20;2.88;;;1.45;;
24084;SDS011;12268;52.110;5.548;2022-07-04T13:28:46;5.00;;;1.80;;
24084;SDS011;12268;52.110;5.548;2022-07-04T13:31:12;3.17;;;1.27;;
24084;SDS011;12268;52.110;5.548;2022-07-04T13:33:37;8.27;;;1.80;;
24084;SDS011;12268;52.110;5.548;2022-07-04T13:36:03;3.83;;;1.80;;
24084;SDS011;12268;52.110;5.548;2022-07-04T13:38:30;4.88;;;1.70;;
24084;SDS011;12268;52.110;5.548;2022-07-04T13:40:55;2.35;;;1.45;;
24084;SDS011;12268;52.110;5.548;2022-07-04T13:43:22;3.15;;;1.55;;
24084;SDS011;12268;52.110;5.548;2022-07-04T13:48:19;2.17;;;1.50;;
24084;SDS011;12268;52.110;5.548;2022-07-04T13:50:45;2.08;;;1.55;;
24084;SDS011;12268;52.110;5.548;2022-07-04T13:53:10;3.95;;;1.58;;
24084;SDS011;12268;52.110;5.548;2022-07-04T13:55:36;2.72;;;1.70;;
24084;SDS011;12268;52.110;5.548;2022-07-04T13:58:06;3.35;;;1.40;;
24084;SDS011;12268;52.110;5.548;2022-07-04T14:00:33;2.03;;;1.30;;
24084;SDS011;12268;52.110;5.548;2022-07-04T14:03:03;6.38;;;2.10;;
24084;SDS011;12268;52.110;5.548;2022-07-04T14:05:29;4.20;;;1.50;;
24084;SDS011;12268;52.110;5.548;2022-07-04T14:07:56;4.82;;;1.77;;
24084;SDS011;12268;52.110;5.548;2022-07-04T14:10:21;14.20;;;3.80;;
24084;SDS011;12268;52.110;5.548;2022-07-04T14:12:47;3.50;;;1.90;;
24084;SDS011;12268;52.110;5.548;2022-07-04T14:15:13;5.90;;;1.77;;
24084;SDS011;12268;52.110;5.548;2022-07-04T14:17:38;7.05;;;2.15;;
24084;SDS011;12268;52.110;5.548;2022-07-04T14:20:05;4.93;;;1.70;;
24084;SDS011;12268;52.110;5.548;2022-07-04T14:22:32;11.02;;;2.38;;
24084;SDS011;12268;52.110;5.548;2022-07-04T14:24:58;5.30;;;1.80;;
24084;SDS011;12268;52.110;5.548;2022-07-04T14:27:23;7.68;;;1.90;;
24084;SDS011;12268;52.110;5.548;2022-07-04T14:29:49;3.33;;;1.73;;
24084;SDS011;12268;52.110;5.548;2022-07-04T14:32:14;2.65;;;1.42;;
24084;SDS011;12268;52.110;5.548;2022-07-04T14:34:40;1.95;;;1.23;;
24084;SDS011;12268;52.110;5.548;2022-07-04T14:37:06;2.28;;;1.13;;
24084;SDS011;12268;52.110;5.548;2022-07-04T14:39:31;3.95;;;1.52;;
24084;SDS011;12268;52.110;5.548;2022-07-04T14:41:57;3.50;;;1.50;;
24084;SDS011;12268;52.110;5.548;2022-07-04T14:44:23;5.88;;;2.03;;
24084;SDS011;12268;52.110;5.548;2022-07-04T14:46:48;5.80;;;1.70;;
24084;SDS011;12268;52.110;5.548;2022-07-04T14:49:14;10.43;;;2.70;;
24084;SDS011;12268;52.110;5.548;2022-07-04T14:51:39;7.13;;;1.85;;
24084;SDS011;12268;52.110;5.548;2022-07-04T14:54:06;12.07;;;2.92;;
24084;SDS011;12268;52.110;5.548;2022-07-04T14:56:32;2.28;;;1.45;;
24084;SDS011;12268;52.110;5.548;2022-07-04T14:58:58;4.40;;;1.38;;
24084;SDS011;12268;52.110;5.548;2022-07-04T15:01:23;2.65;;;1.48;;
24084;SDS011;12268;52.110;5.548;2022-07-04T15:03:49;6.53;;;2.28;;
24084;SDS011;12268;52.110;5.548;2022-07-04T15:06:14;3.60;;;1.70;;
24084;SDS011;12268;52.110;5.548;2022-07-04T15:08:40;6.80;;;2.00;;
24084;SDS011;12268;52.110;5.548;2022-07-04T15:11:06;3.78;;;1.65;;
24084;SDS011;12268;52.110;5.548;2022-07-04T15:13:31;3.92;;;1.45;;
24084;SDS011;12268;52.110;5.548;2022-07-04T15:15:57;2.95;;;1.65;;
24084;SDS011;12268;52.110;5.548;2022-07-04T15:18:22;4.05;;;1.40;;